createdAt,value
2023-02-09T02:22:53.596Z,25.02
2023-02-09T02:26:47.673Z,29.37
2023-02-09T02:30:49.693Z,39.55
2023-02-09T02:34:34.011Z,41.48
2023-02-09T02:42:19.729Z,42.60
2023-02-09T02:46:06.368Z,38.00
2023-02-09T02:52:57.077Z,30.97
2023-02-09T02:56:10.013Z,27.25
2023-02-09T02:59:39.825Z,27.60
2023-02-09T03:03:13.129Z,24.72
2023-02-09T03:06:35.483Z,25.23
2023-02-09T03:09:55.465Z,25.55
2023-02-09T03:13:37.577Z,24.25
2023-02-09T03:17:31.869Z,21.87
2023-02-09T03:25:12.772Z,24.63
2023-02-09T03:28:40.138Z,22.15
2023-02-09T03:32:07.681Z,23.67
2023-02-09T03:35:42.950Z,23.40
2023-02-09T03:39:24.753Z,22.98
2023-02-09T03:42:51.198Z,22.75
2023-02-09T03:46:28.028Z,23.75
2023-02-09T03:49:45.103Z,25.27
2023-02-09T03:53:14.701Z,26.45
2023-02-09T03:56:57.949Z,25.88
2023-02-09T04:00:36.423Z,24.80
2023-02-09T04:03:56.162Z,27.02
2023-02-09T04:11:08.677Z,31.15
2023-02-09T04:14:31.770Z,34.25
2023-02-09T04:17:51.955Z,35.80
2023-02-09T04:21:16.772Z,37.83
2023-02-09T04:24:47.705Z,38.30
2023-02-09T04:28:16.231Z,40.75
2023-02-09T04:35:52.336Z,38.28
2023-02-09T04:50:12.059Z,35.85
2023-02-09T05:01:40.086Z,50.08
2023-02-09T05:08:52.840Z,48.20
2023-02-09T05:12:06.090Z,43.13
2023-02-09T05:33:35.782Z,39.13
2023-02-09T05:37:20.256Z,36.23
2023-02-09T05:48:03.564Z,33.38
2023-02-09T05:51:25.197Z,31.35
2023-02-09T06:25:13.702Z,29.85
2023-02-09T06:32:49.240Z,36.20
2023-02-09T06:40:42.622Z,33.25
2023-02-09T06:44:21.003Z,30.88
2023-02-09T06:54:16.764Z,31.45
2023-02-09T09:52:53.039Z,24.98
2023-02-09T09:59:24.170Z,20.72
2023-02-09T10:28:04.159Z,20.57
2023-02-09T10:31:57.431Z,21.42
2023-02-09T13:55:13.773Z,26.75
2023-02-09T14:06:08.685Z,23.77
2023-02-09T14:13:47.752Z,23.95
2023-02-09T15:12:16.083Z,25.45
2023-02-09T15:20:22.040Z,27.75
2023-02-09T15:48:56.610Z,31.93
2023-02-09T15:52:46.092Z,29.45
2023-02-09T16:07:14.130Z,30.60
2023-02-09T16:11:03.745Z,30.20
2023-02-09T16:17:49.139Z,27.40
2023-02-09T16:21:03.572Z,27.30
2023-02-09T16:24:19.263Z,31.12
2023-02-09T16:27:49.002Z,29.80
2023-02-09T16:31:10.477Z,31.60
2023-02-09T16:34:38.303Z,44.88
2023-02-09T16:37:49.195Z,66.47
2023-02-09T16:41:01.779Z,61.37
2023-02-09T16:44:39.567Z,48.35
2023-02-09T16:48:03.550Z,35.17
2023-02-09T16:51:14.412Z,30.05
2023-02-09T16:54:25.322Z,32.42
2023-02-09T16:57:40.193Z,32.63
2023-02-09T17:00:53.505Z,31.12
2023-02-09T17:04:05.726Z,32.05
2023-02-09T17:07:12.617Z,33.20
2023-02-09T17:10:31.507Z,36.35
2023-02-09T17:13:40.974Z,32.08
2023-02-09T17:16:53.950Z,26.68
2023-02-09T17:19:59.441Z,28.98
2023-02-09T17:23:08.446Z,31.70
2023-02-09T17:26:21.712Z,30.30
2023-02-09T17:29:31.930Z,27.80
2023-02-09T17:32:38.241Z,27.40
2023-02-09T17:36:22.293Z,26.82
2023-02-09T17:39:02.276Z,27.82
2023-02-09T17:42:13.303Z,24.40
2023-02-09T17:45:24.518Z,22.32
2023-02-09T17:48:39.045Z,23.67
2023-02-09T17:51:53.417Z,27.62
2023-02-09T17:55:07.564Z,26.05
2023-02-09T18:01:44.542Z,26.00
2023-02-09T18:04:52.879Z,41.43
2023-02-09T18:08:00.343Z,30.08
2023-02-09T18:11:09.301Z,32.50
2023-02-09T18:14:17.225Z,29.12
2023-02-09T18:17:26.934Z,30.50
2023-02-09T18:20:40.791Z,30.23
2023-02-09T18:23:55.528Z,36.98
2023-02-09T18:27:07.330Z,37.80
2023-02-09T18:30:20.265Z,31.90
2023-02-09T18:33:33.830Z,30.43
2023-02-09T18:36:46.236Z,29.00
2023-02-09T18:39:56.316Z,29.77
2023-02-09T18:43:06.754Z,29.18
2023-02-09T18:46:18.533Z,36.40
2023-02-09T18:49:27.770Z,38.42
2023-02-09T18:52:42.012Z,33.65
2023-02-09T18:55:55.324Z,32.20
2023-02-09T18:59:05.071Z,31.05
2023-02-09T19:02:17.545Z,29.92
2023-02-09T19:05:29.025Z,30.70
2023-02-09T19:08:47.868Z,29.57
2023-02-09T19:11:57.407Z,41.75
2023-02-09T19:15:19.223Z,33.10
2023-02-09T19:18:35.802Z,35.17
2023-02-09T19:21:45.911Z,49.88
2023-02-09T19:25:02.451Z,33.78
2023-02-09T19:28:13.558Z,34.95
2023-02-09T19:31:34.287Z,33.73
2023-02-09T19:34:46.918Z,33.35
2023-02-09T19:37:57.124Z,33.42
2023-02-09T19:41:10.815Z,31.75
2023-02-09T19:44:26.603Z,32.33
2023-02-09T19:47:39.539Z,31.62
2023-02-09T19:50:51.503Z,34.08
2023-02-09T19:54:01.654Z,32.75
2023-02-09T19:57:16.843Z,30.97
2023-02-09T20:00:32.202Z,30.27
2023-02-09T20:03:50.143Z,32.00
2023-02-09T20:06:56.929Z,31.85
2023-02-09T20:10:05.196Z,31.17
2023-02-09T20:13:13.058Z,30.00
2023-02-09T20:16:42.390Z,32.00
2023-02-09T20:19:59.328Z,34.18
2023-02-09T20:23:18.333Z,33.73
2023-02-09T20:26:34.393Z,35.38
2023-02-09T20:29:47.315Z,31.90
2023-02-09T20:33:10.488Z,34.18
2023-02-09T20:36:28.564Z,31.27
2023-02-09T20:39:38.882Z,31.42
2023-02-09T20:43:15.584Z,34.20
2023-02-09T20:46:46.838Z,33.15
2023-02-09T20:50:05.521Z,35.03
2023-02-09T20:53:18.441Z,36.53
2023-02-09T20:56:28.589Z,37.98
2023-02-09T20:59:42.996Z,38.00
2023-02-09T21:02:54.304Z,39.85
2023-02-09T21:06:10.654Z,35.88
2023-02-09T21:09:39.002Z,35.90
2023-02-09T21:12:50.089Z,38.85
2023-02-09T21:16:06.429Z,39.42
2023-02-09T21:19:20.617Z,40.30
2023-02-09T21:22:39.240Z,37.40
2023-02-09T21:25:50.355Z,37.63
2023-02-09T21:29:06.557Z,37.03
2023-02-09T21:32:25.662Z,40.05
2023-02-09T21:35:39.126Z,42.58
2023-02-09T21:38:56.965Z,35.08
2023-02-09T21:42:27.094Z,33.30
2023-02-09T21:45:36.335Z,35.90
2023-02-09T21:48:51.711Z,34.83
2023-02-09T21:52:04.527Z,35.83
2023-02-09T21:55:15.956Z,35.73
2023-02-09T21:58:08.681Z,32.23
2023-02-09T22:01:09.959Z,35.50
2023-02-09T22:04:00.305Z,32.23
2023-02-09T22:06:57.054Z,34.78
2023-02-09T22:09:56.509Z,34.35
2023-02-09T22:13:11.894Z,35.17
2023-02-09T22:16:26.713Z,34.53
2023-02-09T22:19:38.281Z,35.50
2023-02-09T22:22:52.007Z,35.28
2023-02-09T22:26:27.781Z,32.78
2023-02-09T22:29:46.160Z,30.37
2023-02-09T22:32:57.747Z,33.35
2023-02-09T22:36:11.042Z,31.67
2023-02-09T22:39:24.989Z,32.98
2023-02-09T22:42:38.268Z,32.05
2023-02-09T22:46:05.001Z,33.33
2023-02-09T22:49:16.215Z,32.38
2023-02-09T22:52:30.314Z,32.85
2023-02-09T22:55:49.442Z,31.42
2023-02-09T22:59:01.120Z,31.68
2023-02-09T23:02:26.098Z,31.75
2023-02-09T23:05:40.252Z,32.08
2023-02-09T23:08:51.133Z,29.98
2023-02-09T23:12:02.816Z,31.77
2023-02-09T23:15:15.135Z,30.20
2023-02-09T23:18:31.950Z,31.82
2023-02-09T23:21:52.754Z,29.40
2023-02-09T23:25:02.542Z,28.00
2023-02-09T23:28:19.073Z,29.20
2023-02-09T23:31:34.447Z,28.32
2023-02-09T23:34:46.271Z,30.20
2023-02-09T23:38:03.520Z,30.08
2023-02-09T23:41:26.703Z,28.67
2023-02-09T23:44:47.416Z,30.90
2023-02-09T23:47:59.421Z,27.15
2023-02-09T23:51:14.905Z,30.85
2023-02-09T23:54:24.856Z,28.60
2023-02-09T23:57:35.003Z,30.17
